Time;durP1;ratioP1;P1;durP2;ratioP2;P2;SDS_P1;SDS_P2;PMS_P1;PMS_P2;Temp;Humidity;BMP_temperature;BMP_pressure;BME280_temperature;BME280_humidity;BME280_pressure;Samples;Min_cycle;Max_cycle;Signal;HPM_P1;HPM_P2
2023/01/14 00:02:00;;;;;;;11.80;2.87;;;;;;;8.33;62.94;100408.59;10494286;28;20288;-83
2023/01/14 00:07:02;;;;;;;16.10;2.97;;;;;;;8.11;63.71;100403.53;10473360;28;20199;-81
2023/01/14 00:12:05;;;;;;;17.03;3.23;;;;;;;8.26;63.32;100406.13;10485836;28;20188;-82
2023/01/14 00:17:07;;;;;;;15.73;3.50;;;;;;;8.34;62.63;100394.31;10472300;28;20235;-82
2023/01/14 00:22:09;;;;;;;18.43;3.27;;;;;;;8.38;62.03;100386.97;10458757;28;20244;-84
2023/01/14 00:27:12;;;;;;;17.03;3.53;;;;;;;7.89;64.23;100385.31;10484915;28;20270;-83
2023/01/14 00:32:14;;;;;;;14.53;2.77;;;;;;;8.42;62.61;100388.06;10481484;28;20226;-82
2023/01/14 00:37:17;;;;;;;14.80;2.57;;;;;;;8.79;61.02;100380.81;10508052;28;20243;-82
2023/01/14 00:42:19;;;;;;;18.27;3.50;;;;;;;7.79;64.29;100374.25;10478314;28;20191;-82
2023/01/14 00:47:21;;;;;;;16.07;3.63;;;;;;;8.18;62.02;100376.06;10468225;28;20188;-86
2023/01/14 00:52:23;;;;;;;17.90;3.50;;;;;;;8.07;63.34;100386.50;10443545;28;20199;-84
2023/01/14 00:57:25;;;;;;;15.90;3.10;;;;;;;7.75;63.92;100406.69;10491813;28;20612;-86
2023/01/14 01:02:28;;;;;;;17.90;3.20;;;;;;;8.09;63.15;100411.38;10471115;28;20222;-83
2023/01/14 01:07:30;;;;;;;22.83;3.27;;;;;;;8.44;61.09;100407.31;10459298;28;20353;-82
2023/01/14 01:12:32;;;;;;;17.17;3.10;;;;;;;7.81;63.82;100427.84;10464482;28;20493;-85
2023/01/14 01:17:35;;;;;;;18.07;3.93;;;;;;;8.14;63.36;100430.84;10450180;28;20242;-81
2023/01/14 01:22:37;;;;;;;15.87;3.43;;;;;;;8.55;61.27;100439.59;10471094;28;20234;-82
2023/01/14 01:27:39;;;;;;;12.73;3.13;;;;;;;7.65;64.62;100451.47;10453647;28;20191;-83
2023/01/14 01:32:42;;;;;;;16.73;2.93;;;;;;;7.85;63.99;100444.88;10456693;28;20199;-85
2023/01/14 01:37:44;;;;;;;12.73;3.00;;;;;;;8.30;62.97;100457.53;10457023;28;20328;-82
2023/01/14 01:42:58;;;;;;;25.60;4.63;;;;;;;8.15;63.23;100458.53;10462444;28;20245;-84
2023/01/14 01:48:08;;;;;;;18.67;3.43;;;;;;;8.22;63.12;100455.38;10483755;28;20666;-83
2023/01/14 01:53:10;;;;;;;19.97;4.47;;;;;;;8.10;63.67;100455.78;10457134;28;20561;-82
2023/01/14 01:58:12;;;;;;;19.17;3.10;;;;;;;8.27;63.21;100466.50;10466416;28;20247;-82
2023/01/14 02:03:29;;;;;;;16.87;3.30;;;;;;;8.06;63.80;100468.66;10462017;28;20244;-82
2023/01/14 02:08:32;;;;;;;20.47;3.00;;;;;;;7.88;64.78;100461.00;10468049;28;20483;-83
2023/01/14 02:13:43;;;;;;;20.07;3.93;;;;;;;8.14;63.50;100464.38;10488529;28;20219;-83
2023/01/14 02:19:08;;;;;;;19.00;4.00;;;;;;;8.01;63.33;100457.53;10471135;28;20211;-82
2023/01/14 02:24:38;;;;;;;18.03;3.43;;;;;;;8.45;61.90;100457.34;10459078;28;20219;-82
2023/01/14 02:29:53;;;;;;;24.67;3.97;;;;;;;7.94;63.93;100454.25;10475668;28;20241;-82
2023/01/14 02:35:14;;;;;;;18.70;3.33;;;;;;;7.33;66.30;100459.56;10450663;28;20223;-83
2023/01/14 02:40:43;;;;;;;17.97;3.43;;;;;;;7.99;63.88;100467.31;10466035;28;20273;-83
2023/01/14 02:46:03;;;;;;;18.67;2.47;;;;;;;7.49;65.00;100444.34;10445127;28;20196;-83
2023/01/14 02:51:06;;;;;;;15.80;2.60;;;;;;;7.76;64.70;100447.44;10438355;28;20191;-83
2023/01/14 02:56:11;;;;;;;16.23;3.70;;;;;;;7.71;63.82;100432.72;10439602;28;20222;-83
2023/01/14 03:01:21;;;;;;;19.27;3.60;;;;;;;7.86;64.05;100436.16;10446033;28;20210;-83
2023/01/14 03:06:37;;;;;;;12.93;3.70;;;;;;;7.65;64.17;100420.75;10468501;28;20199;-84
2023/01/14 03:11:57;;;;;;;23.47;3.37;;;;;;;7.78;64.22;100422.03;10455672;28;20500;-83
2023/01/14 03:17:26;;;;;;;13.17;2.87;;;;;;;7.55;65.53;100418.06;10460654;28;20211;-83
2023/01/14 03:22:29;;;;;;;13.87;3.40;;;;;;;8.12;63.38;100400.41;10473915;28;20195;-83
2023/01/14 03:27:34;;;;;;;17.70;3.67;;;;;;;7.73;64.33;100381.00;10468627;28;20188;-82
2023/01/14 03:32:43;;;;;;;19.20;4.00;;;;;;;7.80;63.78;100381.50;10470500;28;20187;-83
2023/01/14 03:37:53;;;;;;;19.70;3.83;;;;;;;7.73;63.58;100381.00;10482589;28;20523;-83
2023/01/14 03:43:01;;;;;;;14.10;3.37;;;;;;;7.69;64.78;100374.38;10495579;28;20199;-84
2023/01/14 03:48:04;;;;;;;19.37;3.23;;;;;;;7.78;63.85;100371.75;10475436;28;20195;-84
2023/01/14 03:53:19;;;;;;;19.83;3.57;;;;;;;7.83;63.39;100364.16;10482564;28;20233;-83
2023/01/14 03:58:36;;;;;;;20.43;3.03;;;;;;;8.08;62.48;100359.41;10474890;28;20207;-82
2023/01/14 04:03:39;;;;;;;18.17;2.97;;;;;;;7.83;63.04;100346.59;10486800;28;20199;-86
2023/01/14 04:08:41;;;;;;;22.40;2.73;;;;;;;7.70;63.73;100353.72;10473424;28;20546;-83
2023/01/14 04:19:04;;;;;;;16.77;2.90;;;;;;;7.82;63.97;100344.91;10465224;28;20303;-82
2023/01/14 04:24:06;;;;;;;18.00;3.37;;;;;;;7.85;63.38;100350.72;10488044;28;20195;-83
2023/01/14 04:29:09;;;;;;;17.93;2.97;;;;;;;8.38;61.24;100331.06;10476917;28;20225;-83
2023/01/14 04:34:11;;;;;;;13.43;2.53;;;;;;;7.79;63.74;100335.16;10481474;28;20219;-83
2023/01/14 04:39:13;;;;;;;16.93;3.50;;;;;;;7.50;64.65;100326.81;10489068;28;20671;-82
2023/01/14 04:44:15;;;;;;;23.87;3.77;;;;;;;7.73;63.64;100316.78;10495483;28;20218;-82
2023/01/14 04:49:17;;;;;;;21.83;4.17;;;;;;;7.68;64.16;100304.88;10462490;28;20188;-82
2023/01/14 04:54:19;;;;;;;20.70;3.33;;;;;;;7.41;64.73;100305.44;10496663;28;20260;-83
2023/01/14 04:59:21;;;;;;;13.97;3.13;;;;;;;7.53;64.70;100297.50;10475456;28;20308;-84
2023/01/14 05:04:24;;;;;;;20.73;3.17;;;;;;;7.89;63.39;100293.16;10477012;28;20646;-82
2023/01/14 05:09:26;;;;;;;17.00;3.00;;;;;;;7.30;65.78;100281.56;10493520;28;20231;-82
2023/01/14 05:14:28;;;;;;;13.70;2.63;;;;;;;7.37;65.19;100276.47;10465696;28;20196;-82
2023/01/14 05:19:30;;;;;;;15.20;2.63;;;;;;;7.87;63.07;100259.09;10455540;28;20282;-83
2023/01/14 05:24:33;;;;;;;19.80;2.87;;;;;;;7.24;64.47;100266.00;10457781;28;20245;-82
2023/01/14 05:29:36;;;;;;;23.90;3.37;;;;;;;7.41;64.48;100256.06;10474330;28;20584;-82
2023/01/14 05:34:38;;;;;;;18.67;2.97;;;;;;;7.47;62.98;100238.09;10487381;28;20217;-82
2023/01/14 05:39:41;;;;;;;15.93;3.10;;;;;;;7.32;63.84;100231.91;10437516;28;20515;-82
2023/01/14 05:50:04;;;;;;;11.93;2.57;;;;;;;6.93;63.67;100209.72;10467164;28;20592;-85
2023/01/14 05:55:06;;;;;;;11.47;2.30;;;;;;;7.23;63.12;100187.06;10460569;28;20417;-81
2023/01/14 06:06:20;;;;;;;12.57;2.33;;;;;;;7.44;61.72;100201.63;10486224;28;20697;-83
2023/01/14 06:10:43;;;;;;;14.57;2.73;;;;;;;7.40;61.26;100179.03;10483094;28;20215;-82
2023/01/14 06:15:46;;;;;;;14.57;2.30;;;;;;;7.27;61.61;100153.81;10436238;28;20253;-83
2023/01/14 06:20:49;;;;;;;9.23;1.63;;;;;;;7.32;60.97;100145.41;10477161;28;20333;-83
2023/01/14 06:25:52;;;;;;;9.80;2.07;;;;;;;6.76;62.37;100157.19;10470835;28;20252;-82
2023/01/14 06:30:54;;;;;;;9.50;1.93;;;;;;;6.90;61.66;100148.97;10462085;28;20200;-83
2023/01/14 06:35:56;;;;;;;13.97;1.87;;;;;;;6.98;61.77;100134.38;10487270;28;20235;-82
2023/01/14 06:41:04;;;;;;;9.93;2.17;;;;;;;7.14;62.20;100119.13;10472461;28;20315;-84
2023/01/14 06:46:06;;;;;;;8.87;1.57;;;;;;;6.99;62.20;100108.97;10488936;28;20195;-82
2023/01/14 06:51:11;;;;;;;10.77;1.97;;;;;;;6.14;64.98;100119.84;10477330;28;20627;-83
2023/01/14 06:56:16;;;;;;;7.73;1.80;;;;;;;6.94;63.27;100097.06;10475621;28;20226;-82
2023/01/14 07:01:19;;;;;;;9.60;1.80;;;;;;;6.68;62.91;100090.91;10476396;28;20321;-83
2023/01/14 07:06:21;;;;;;;14.47;2.00;;;;;;;7.04;61.53;100074.63;10446629;28;20298;-84
2023/01/14 07:11:24;;;;;;;7.17;1.80;;;;;;;6.75;62.37;100058.81;10473275;28;20693;-83
2023/01/14 07:16:26;;;;;;;13.47;1.83;;;;;;;6.94;62.21;100061.66;10452771;28;20235;-82
2023/01/14 07:21:28;;;;;;;7.57;1.87;;;;;;;7.11;61.68;100049.97;10472398;28;20300;-82
2023/01/14 07:26:31;;;;;;;13.43;1.83;;;;;;;6.90;62.35;100049.44;10477006;28;20223;-83
2023/01/14 07:31:33;;;;;;;14.07;1.90;;;;;;;6.79;62.31;100043.16;10455129;28;20215;-81
2023/01/14 07:36:35;;;;;;;9.30;1.57;;;;;;;7.16;61.60;100030.41;10442747;28;20230;-82
2023/01/14 07:41:38;;;;;;;8.40;1.50;;;;;;;6.78;63.33;100007.22;10466984;28;20566;-83
2023/01/14 07:46:41;;;;;;;13.47;1.90;;;;;;;7.02;64.46;100004.38;10458900;28;20208;-83
2023/01/14 07:51:43;;;;;;;9.63;1.50;;;;;;;6.74;67.45;99981.00;10466646;28;20257;-84
2023/01/14 07:56:47;;;;;;;5.83;1.67;;;;;;;6.89;67.33;99971.66;10471761;28;20296;-84
2023/01/14 08:01:49;;;;;;;7.67;1.10;;;;;;;6.31;69.55;99964.25;10471334;28;20238;-85
2023/01/14 08:06:51;;;;;;;8.70;1.60;;;;;;;6.53;69.09;99954.53;10476255;28;20292;-83
2023/01/14 08:11:54;;;;;;;6.03;1.37;;;;;;;6.14;71.32;99940.81;10465694;28;20223;-83
2023/01/14 08:16:56;;;;;;;10.23;1.97;;;;;;;6.36;70.55;99932.75;10467395;28;20207;-84
2023/01/14 08:21:58;;;;;;;10.17;1.90;;;;;;;6.10;73.43;99923.84;10439325;28;20655;-85
2023/01/14 08:27:00;;;;;;;13.00;1.90;;;;;;;6.34;72.87;99907.13;10465047;28;20277;-85
2023/01/14 08:32:03;;;;;;;10.70;2.97;;;;;;;6.14;73.15;99891.50;10475849;28;20199;-84
2023/01/14 08:37:05;;;;;;;12.03;1.63;;;;;;;5.91;74.64;99878.41;10469286;28;20667;-84
2023/01/14 08:42:07;;;;;;;8.10;1.87;;;;;;;6.69;71.77;99891.88;10482954;28;20242;-85
2023/01/14 08:47:09;;;;;;;8.33;1.87;;;;;;;6.30;73.80;99856.75;10467215;28;20200;-84
2023/01/14 08:52:12;;;;;;;8.27;1.40;;;;;;;6.61;73.32;99856.34;10461579;28;20492;-84
2023/01/14 08:57:14;;;;;;;8.87;1.73;;;;;;;6.60;73.12;99837.97;10486287;28;20203;-86
2023/01/14 09:02:16;;;;;;;12.53;1.53;;;;;;;6.96;73.24;99841.06;10481649;28;20304;-84
2023/01/14 09:18:00;;;;;;;4.27;1.40;;;;;;;6.69;74.09;99792.38;10468649;28;20228;-83
2023/01/14 09:23:05;;;;;;;4.50;0.83;;;;;;;6.49;73.98;99769.59;10465995;28;20273;-83
2023/01/14 09:28:11;;;;;;;10.93;1.47;;;;;;;6.68;73.54;99745.34;10444807;28;20285;-81
2023/01/14 09:33:13;;;;;;;5.50;1.27;;;;;;;6.56;73.69;99736.59;10471907;28;20605;-84
2023/01/14 09:38:15;;;;;;;10.63;1.50;;;;;;;6.76;72.36;99727.94;10461677;28;20254;-85
2023/01/14 09:43:19;;;;;;;7.83;1.50;;;;;;;7.12;71.31;99711.38;10461474;28;20273;-84
2023/01/14 09:48:23;;;;;;;6.93;1.20;;;;;;;7.36;69.42;99712.03;10483455;28;20226;-84
2023/01/14 09:53:43;;;;;;;9.00;0.90;;;;;;;7.44;69.64;99690.97;10464171;28;20199;-87
2023/01/14 09:58:58;;;;;;;4.57;0.90;;;;;;;7.35;70.09;99687.22;10461082;28;20296;-84
2023/01/14 10:04:18;;;;;;;4.10;0.90;;;;;;;7.45;69.11;99670.31;10456707;28;20207;-83
2023/01/14 10:09:26;;;;;;;3.57;0.63;;;;;;;7.39;70.10;99672.34;10473519;28;20223;-82
2023/01/14 10:14:35;;;;;;;4.57;1.27;;;;;;;6.88;71.60;99643.81;10469299;28;20219;-83
2023/01/14 10:19:42;;;;;;;2.73;0.90;;;;;;;7.35;71.02;99618.31;10437044;28;20885;-83
2023/01/14 10:24:44;;;;;;;2.20;0.60;;;;;;;7.46;69.58;99600.22;10449721;28;20520;-85
2023/01/14 10:29:47;;;;;;;3.57;0.70;;;;;;;7.70;69.49;99574.03;10447604;28;20615;-83
2023/01/14 10:34:52;;;;;;;2.20;0.60;;;;;;;7.79;68.84;99550.63;10486496;28;20733;-83
2023/01/14 10:39:55;;;;;;;2.37;0.50;;;;;;;7.34;71.87;99557.25;10479457;28;20246;-85
2023/01/14 10:44:57;;;;;;;2.57;0.53;;;;;;;7.28;73.48;99537.03;10469876;28;20237;-84
2023/01/14 10:50:06;;;;;;;3.47;0.50;;;;;;;7.29;73.72;99521.09;10480719;28;20220;-85
2023/01/14 10:55:11;;;;;;;3.23;0.60;;;;;;;7.53;73.95;99513.28;10458461;28;20207;-85
2023/01/14 11:00:35;;;;;;;3.23;0.90;;;;;;;7.44;76.06;99474.16;10484857;28;20311;-86
2023/01/14 11:05:40;;;;;;;2.63;0.50;;;;;;;7.45;76.74;99473.03;10469795;28;20198;-84
2023/01/14 11:10:42;;;;;;;2.40;0.40;;;;;;;7.23;78.58;99449.84;10446875;28;20297;-83
2023/01/14 11:15:45;;;;;;;3.70;0.40;;;;;;;7.14;78.56;99446.97;10456348;28;20188;-84
2023/01/14 11:20:53;;;;;;;4.20;0.50;;;;;;;7.43;77.11;99439.03;10471198;28;20639;-85
2023/01/14 11:25:57;;;;;;;2.23;0.70;;;;;;;7.56;77.84;99415.00;10458332;28;20658;-84
2023/01/14 11:31:00;;;;;;;2.63;0.53;;;;;;;7.10;79.96;99402.16;10469733;28;20249;-85
2023/01/14 11:36:10;;;;;;;3.47;0.40;;;;;;;7.44;79.71;99393.25;10469290;28;20259;-85
2023/01/14 11:41:29;;;;;;;3.30;0.97;;;;;;;7.29;80.10;99390.84;10483672;28;20223;-84
2023/01/14 11:46:36;;;;;;;2.43;0.33;;;;;;;7.10;80.48;99345.56;10455080;28;20203;-82
2023/01/14 11:51:40;;;;;;;2.40;0.37;;;;;;;7.30;80.30;99307.97;10445740;28;20217;-88
2023/01/14 11:56:43;;;;;;;4.93;0.47;;;;;;;7.47;79.38;99277.38;10443022;28;20289;-83
2023/01/14 12:01:49;;;;;;;2.63;0.30;;;;;;;7.50;80.06;99260.00;10477156;28;20665;-83
2023/01/14 12:06:55;;;;;;;2.17;0.30;;;;;;;7.68;79.73;99261.72;10479257;28;20256;-83
2023/01/14 12:12:02;;;;;;;1.70;0.20;;;;;;;7.74;78.84;99234.47;10478869;28;20219;-86
2023/01/14 12:17:29;;;;;;;2.90;0.40;;;;;;;7.57;80.58;99207.34;10484464;28;20207;-88
2023/01/14 12:22:46;;;;;;;1.87;0.40;;;;;;;7.75;78.56;99186.69;10454643;28;20276;-85
2023/01/14 12:27:55;;;;;;;1.30;0.30;;;;;;;7.80;79.10;99180.16;10482218;28;20234;-84
2023/01/14 12:33:15;;;;;;;2.13;0.37;;;;;;;7.91;79.13;99170.31;10471046;28;20239;-85
2023/01/14 12:49:20;;;;;;;1.87;0.50;;;;;;;8.14;77.20;99134.69;10476985;28;20219;-82
2023/01/14 12:54:29;;;;;;;0.50;0.20;;;;;;;8.17;78.58;99112.53;10481894;28;20223;-82
2023/01/14 12:59:37;;;;;;;1.67;0.20;;;;;;;8.00;79.65;99111.69;10468586;28;20247;-83
2023/01/14 13:04:46;;;;;;;0.63;0.10;;;;;;;8.13;79.49;99102.31;10472863;28;20232;-82
2023/01/14 13:09:56;;;;;;;1.63;0.20;;;;;;;8.05;79.61;99108.72;10479063;28;20214;-82
2023/01/14 13:15:02;;;;;;;1.77;0.20;;;;;;;8.01;79.39;99082.59;10458829;28;20252;-84
2023/01/14 13:20:06;;;;;;;1.00;0.30;;;;;;;8.45;78.32;99057.13;10444868;28;20296;-84
2023/01/14 13:25:32;;;;;;;0.93;0.30;;;;;;;7.74;81.00;99039.09;10469931;28;20292;-84
2023/01/14 13:30:50;;;;;;;0.63;0.20;;;;;;;7.87;81.00;99033.34;10475773;28;20219;-84
2023/01/14 13:36:10;;;;;;;1.23;0.30;;;;;;;8.01;80.10;99035.13;10469671;28;20542;-84
2023/01/14 13:41:32;;;;;;;1.30;0.40;;;;;;;7.94;81.32;99038.44;10472900;28;20258;-83
2023/01/14 13:46:37;;;;;;;1.63;0.20;;;;;;;8.30;80.36;99021.31;10451987;28;20266;-85
2023/01/14 13:51:42;;;;;;;0.10;0.10;;;;;;;7.99;81.53;99020.69;10474269;28;20220;-84
2023/01/14 13:56:50;;;;;;;1.80;0.17;;;;;;;8.09;81.12;98987.66;10472612;28;20224;-85
2023/01/14 14:01:53;;;;;;;1.13;0.20;;;;;;;8.20;79.73;98991.78;10472408;28;20262;-84
2023/01/14 14:06:55;;;;;;;2.23;0.30;;;;;;;7.94;81.15;98977.03;10483416;28;20264;-86
2023/01/14 14:14:03;;;;;;;0.40;0.30;;;;;;;8.34;80.86;98960.03;10465775;28;20283;-84
2023/01/14 14:17:40;;;;;;;1.67;0.70;;;;;;;8.32;80.91;98931.59;10474290;28;20280;-86
2023/01/14 14:22:46;;;;;;;1.60;0.13;;;;;;;8.79;79.07;98949.13;10479588;28;20838;-85
2023/01/14 14:27:50;;;;;;;0.20;0.20;;;;;;;8.37;80.57;98923.84;10450158;28;20718;-84
2023/01/14 14:32:53;;;;;;;1.13;0.70;;;;;;;8.62;80.93;98915.69;10468012;28;20246;-86
2023/01/14 14:37:59;;;;;;;1.47;0.40;;;;;;;8.69;80.82;98886.03;10476193;28;20895;-84
2023/01/14 14:43:02;;;;;;;0.50;0.20;;;;;;;8.57;80.74;98888.75;10451551;28;20710;-85
2023/01/14 14:48:22;;;;;;;0.40;0.30;;;;;;;8.77;80.00;98867.56;10445979;28;20260;-84
2023/01/14 14:53:34;;;;;;;0.47;0.20;;;;;;;8.70;79.94;98867.28;10462516;28;20284;-85
2023/01/14 14:58:37;;;;;;;1.33;0.30;;;;;;;8.76;80.30;98882.72;10445780;28;20291;-85
2023/01/14 15:03:40;;;;;;;0.60;0.20;;;;;;;8.64;80.96;98865.84;10475414;28;20242;-85
2023/01/14 15:08:51;;;;;;;0.10;0.10;;;;;;;9.00;79.27;98860.50;10467638;28;20231;-84
2023/01/14 15:13:53;;;;;;;1.13;0.10;;;;;;;8.50;81.63;98841.75;10476074;28;20215;-84
2023/01/14 15:18:56;;;;;;;0.30;0.30;;;;;;;8.81;80.92;98846.97;10464832;28;20398;-84
2023/01/14 15:24:03;;;;;;;0.20;0.20;;;;;;;8.21;82.74;98855.72;10460469;28;20333;-83
2023/01/14 15:29:05;;;;;;;0.53;0.10;;;;;;;8.54;83.08;98842.72;10477948;28;20295;-84
2023/01/14 15:34:17;;;;;;;0.30;0.10;;;;;;;8.62;83.33;98827.06;10476408;28;20273;-83
2023/01/14 15:39:19;;;;;;;0.27;0.20;;;;;;;8.93;81.83;98818.25;10479052;28;20246;-84
2023/01/14 15:44:28;;;;;;;0.63;0.20;;;;;;;9.26;81.19;98827.53;10486811;28;20235;-83
2023/01/14 15:49:32;;;;;;;0.23;0.10;;;;;;;9.04;80.96;98816.69;10457629;28;20208;-85
2023/01/14 15:54:40;;;;;;;0.30;0.30;;;;;;;8.62;83.76;98798.31;10454562;28;20231;-83
2023/01/14 16:00:09;;;;;;;0.27;0.27;;;;;;;8.91;83.25;98798.22;10477378;28;20230;-83
2023/01/14 16:05:30;;;;;;;0.33;0.30;;;;;;;8.74;82.42;98801.97;10482597;28;20838;-84
2023/01/14 16:10:32;;;;;;;1.93;0.20;;;;;;;9.13;81.71;98803.47;10477625;28;20215;-82
2023/01/14 16:15:34;;;;;;;0.40;0.20;;;;;;;8.94;82.47;98789.16;10475287;28;20616;-83
2023/01/14 16:20:37;;;;;;;1.07;0.30;;;;;;;8.66;83.92;98782.47;10472923;28;20308;-84
2023/01/14 16:25:39;;;;;;;0.30;0.20;;;;;;;8.93;82.56;98781.91;10476356;28;20226;-83
2023/01/14 16:30:41;;;;;;;0.40;0.20;;;;;;;9.05;82.90;98778.34;10487630;28;20292;-85
2023/01/14 16:35:46;;;;;;;2.33;0.40;;;;;;;9.00;82.44;98765.41;10480173;28;20277;-83
2023/01/14 16:40:48;;;;;;;0.43;0.40;;;;;;;8.68;84.46;98763.38;10481905;28;20304;-85
2023/01/14 16:45:53;;;;;;;0.70;0.43;;;;;;;8.80;84.93;98758.66;10467501;28;20289;-82
2023/01/14 16:51:10;;;;;;;0.50;0.30;;;;;;;8.92;83.90;98746.72;10468096;28;20223;-82
2023/01/14 16:56:12;;;;;;;0.70;0.23;;;;;;;9.32;83.12;98745.00;10464837;28;20545;-82
2023/01/14 17:01:14;;;;;;;0.33;0.20;;;;;;;8.98;83.44;98733.34;10441523;28;20307;-84
2023/01/14 17:06:17;;;;;;;1.33;0.30;;;;;;;9.26;83.42;98729.59;10457709;28;20227;-83
2023/01/14 17:16:41;;;;;;;0.53;0.23;;;;;;;8.97;83.71;98718.56;10469936;28;20603;-84
2023/01/14 17:21:43;;;;;;;0.63;0.37;;;;;;;9.01;84.14;98733.50;10470812;28;20297;-84
2023/01/14 17:26:45;;;;;;;0.40;0.20;;;;;;;8.97;85.02;98718.56;10471598;28;20280;-83
2023/01/14 17:31:47;;;;;;;0.63;0.30;;;;;;;9.59;81.96;98717.56;10453621;28;20227;-83
2023/01/14 17:36:50;;;;;;;0.87;0.30;;;;;;;9.20;83.97;98714.19;10472558;28;20285;-83
2023/01/14 17:42:10;;;;;;;1.70;0.30;;;;;;;9.04;84.14;98704.81;10457997;28;20300;-84
2023/01/14 17:47:20;;;;;;;0.97;0.50;;;;;;;9.35;84.29;98704.31;10481197;28;20242;-84
2023/01/14 17:52:22;;;;;;;0.60;0.40;;;;;;;9.42;84.18;98712.16;10475535;28;20265;-85
2023/01/14 17:57:27;;;;;;;0.30;0.30;;;;;;;9.30;84.19;98705.34;10476972;28;20547;-83
2023/01/14 18:02:29;;;;;;;0.20;0.20;;;;;;;9.27;83.82;98688.47;10472132;28;20251;-82
2023/01/14 18:07:32;;;;;;;0.20;0.20;;;;;;;9.82;82.14;98684.31;10477561;28;20238;-83
2023/01/14 18:12:35;;;;;;;0.87;0.43;;;;;;;9.65;82.50;98680.59;10475510;28;20661;-83
2023/01/14 18:17:37;;;;;;;0.20;0.20;;;;;;;9.90;81.05;98663.78;10469019;28;20232;-82
2023/01/14 18:22:41;;;;;;;0.50;0.50;;;;;;;10.02;80.02;98661.78;10456656;28;20230;-83
2023/01/14 18:27:43;;;;;;;0.37;0.33;;;;;;;9.93;81.07;98677.88;10455801;28;20604;-82
2023/01/14 18:32:46;;;;;;;0.30;0.30;;;;;;;10.23;78.47;98663.59;10461795;28;20274;-82
2023/01/14 18:37:48;;;;;;;0.50;0.40;;;;;;;10.84;77.21;98664.22;10462188;28;20246;-83
2023/01/14 18:42:50;;;;;;;1.07;0.50;;;;;;;10.82;76.30;98662.97;10459069;28;20243;-82
2023/01/14 18:47:52;;;;;;;0.40;0.40;;;;;;;10.23;78.47;98655.19;10467892;28;20277;-82
2023/01/14 18:52:55;;;;;;;0.30;0.20;;;;;;;10.80;76.30;98662.50;10464185;28;20227;-82
2023/01/14 18:57:57;;;;;;;0.20;0.20;;;;;;;10.53;77.19;98664.09;10458006;28;20778;-83
2023/01/14 19:03:00;;;;;;;0.73;0.20;;;;;;;10.67;78.71;98656.94;10478189;28;20241;-83
2023/01/14 19:08:04;;;;;;;0.80;0.30;;;;;;;10.78;78.05;98654.44;10465447;28;20234;-83
2023/01/14 19:13:06;;;;;;;0.70;0.30;;;;;;;10.57;78.85;98660.25;10482623;28;21233;-84
2023/01/14 19:18:10;;;;;;;0.50;0.50;;;;;;;10.23;81.79;98655.19;10453648;28;20199;-84
2023/01/14 19:23:12;;;;;;;0.57;0.40;;;;;;;10.59;79.63;98657.91;10471769;28;20247;-84
2023/01/14 19:28:15;;;;;;;1.27;0.20;;;;;;;10.56;80.87;98660.63;10476235;28;20230;-83
2023/01/14 19:33:17;;;;;;;2.50;0.40;;;;;;;10.61;80.91;98672.38;10466391;28;20215;-83
2023/01/14 19:38:19;;;;;;;0.30;0.30;;;;;;;10.52;81.58;98657.69;10470333;28;20258;-82
2023/01/14 19:43:22;;;;;;;0.50;0.47;;;;;;;11.06;78.75;98651.59;10475332;28;20239;-83
2023/01/14 19:48:24;;;;;;;0.60;0.50;;;;;;;10.50;81.17;98653.59;10483227;28;20681;-84
2023/01/14 19:53:26;;;;;;;0.77;0.43;;;;;;;11.03;79.45;98646.72;10466680;28;20273;-83
2023/01/14 19:58:29;;;;;;;1.33;0.50;;;;;;;10.51;82.90;98644.81;10467414;28;20215;-84
2023/01/14 20:03:32;;;;;;;2.20;0.73;;;;;;;11.03;79.20;98641.91;10473930;28;20239;-83
2023/01/14 20:08:34;;;;;;;0.70;0.70;;;;;;;10.77;80.27;98643.56;10461634;28;20293;-84
2023/01/14 20:13:37;;;;;;;1.60;1.00;;;;;;;11.09;78.79;98664.94;10490371;28;20207;-83
2023/01/14 20:18:40;;;;;;;0.50;0.50;;;;;;;10.90;80.74;98664.78;10456542;28;20229;-84
2023/01/14 20:23:43;;;;;;;0.97;0.50;;;;;;;11.14;79.68;98661.84;10495946;28;20255;-85
2023/01/14 20:28:47;;;;;;;0.90;0.57;;;;;;;10.89;81.49;98668.75;10489679;28;20253;-85
2023/01/14 20:33:49;;;;;;;2.37;0.80;;;;;;;11.33;79.38;98645.13;10471968;28;20864;-84
2023/01/14 20:38:52;;;;;;;1.97;1.37;;;;;;;11.37;79.56;98665.66;10484109;28;20220;-84
2023/01/14 20:43:55;;;;;;;2.40;1.70;;;;;;;11.14;79.48;98661.03;10491115;28;20249;-85
2023/01/14 20:48:57;;;;;;;2.93;1.30;;;;;;;11.21;80.20;98687.31;10487794;28;20253;-84
2023/01/14 20:53:59;;;;;;;4.00;0.77;;;;;;;11.67;78.48;98685.72;10473411;28;20246;-83
2023/01/14 21:04:04;;;;;;;0.87;0.50;;;;;;;11.56;79.43;98678.16;10480600;28;20260;-83
2023/01/14 21:09:08;;;;;;;1.03;0.23;;;;;;;10.68;81.42;98683.81;10469050;28;20257;-84
2023/01/14 21:24:55;;;;;;;1.50;0.60;;;;;;;11.00;75.92;98686.69;10479681;28;20246;-84
2023/01/14 21:29:57;;;;;;;1.73;0.73;;;;;;;10.63;77.94;98681.25;10487734;28;20701;-83
2023/01/14 21:35:02;;;;;;;0.80;0.80;;;;;;;10.69;77.74;98701.47;10468875;28;20258;-85
2023/01/14 21:40:04;;;;;;;0.83;0.83;;;;;;;10.91;75.93;98686.06;10483699;28;20208;-84
2023/01/14 21:45:07;;;;;;;1.40;1.00;;;;;;;11.16;74.00;98693.16;10475627;28;20250;-84
2023/01/14 21:50:30;;;;;;;1.30;1.20;;;;;;;10.59;76.86;98685.94;10468514;28;20620;-84
2023/01/14 21:55:34;;;;;;;1.77;1.43;;;;;;;11.28;74.85;98701.50;10471445;28;20292;-84
2023/01/14 22:00:37;;;;;;;1.53;1.43;;;;;;;10.57;76.65;98710.72;10485350;28;20592;-84
2023/01/14 22:05:39;;;;;;;1.97;1.60;;;;;;;11.24;74.42;98705.38;10485283;28;20674;-85
2023/01/14 22:10:42;;;;;;;3.33;1.70;;;;;;;11.06;75.26;98711.34;10467989;28;20257;-83
2023/01/14 22:15:44;;;;;;;2.33;1.80;;;;;;;11.21;73.88;98701.34;10485117;28;20253;-83
2023/01/14 22:20:55;;;;;;;3.80;2.10;;;;;;;11.10;74.84;98696.59;10472999;28;20323;-82
2023/01/14 22:25:59;;;;;;;3.17;2.00;;;;;;;11.00;74.68;98695.94;10477189;28;20309;-82
2023/01/14 22:31:01;;;;;;;3.03;2.00;;;;;;;10.67;77.06;98704.63;10483592;28;20194;-82
2023/01/14 22:36:03;;;;;;;2.60;2.40;;;;;;;10.63;76.92;98686.88;10480904;28;20219;-82
2023/01/14 22:41:06;;;;;;;5.13;2.60;;;;;;;10.36;77.50;98673.59;10460096;28;20701;-82
2023/01/14 22:46:09;;;;;;;2.80;2.30;;;;;;;10.17;79.00;98673.44;10464767;28;20239;-82
2023/01/14 22:51:12;;;;;;;3.23;1.37;;;;;;;10.36;76.93;98670.81;10463412;28;20233;-83
2023/01/14 22:56:14;;;;;;;4.70;1.40;;;;;;;11.12;73.45;98672.59;10472850;28;20261;-83
2023/01/14 23:01:19;;;;;;;1.00;0.60;;;;;;;9.75;76.77;98706.50;10478626;28;20222;-82
2023/01/14 23:06:22;;;;;;;1.30;0.30;;;;;;;9.96;73.59;98702.38;10480016;28;20219;-81
2023/01/14 23:11:44;;;;;;;3.07;0.53;;;;;;;10.30;73.49;98723.50;10462615;28;20272;-82
2023/01/14 23:27:31;;;;;;;3.03;0.77;;;;;;;9.64;75.03;98757.34;10474584;28;20234;-84
2023/01/14 23:32:33;;;;;;;1.90;0.50;;;;;;;8.04;77.63;98802.72;10471811;28;20199;-82
2023/01/14 23:37:36;;;;;;;1.13;0.30;;;;;;;8.39;74.48;98818.16;10450545;28;20254;-83
2023/01/14 23:42:38;;;;;;;2.30;0.53;;;;;;;7.50;74.90;98835.91;10468448;28;20870;-83
2023/01/14 23:47:43;;;;;;;2.27;0.20;;;;;;;7.55;74.46;98832.13;10452764;28;20223;-83
2023/01/14 23:52:46;;;;;;;1.57;0.30;;;;;;;8.12;72.53;98849.31;10474360;28;20227;-82
2023/01/14 23:57:48;;;;;;;4.63;0.50;;;;;;;7.71;74.16;98855.56;10480617;28;20223;-84
